sensor_id;sensor_type;location;lat;lon;timestamp;temperature;humidity
49413;DHT22;35493;50.276;9.372;2023-04-24T00:00:47;13.30;83.80
49413;DHT22;35493;50.276;9.372;2023-04-24T00:03:14;13.40;83.80
49413;DHT22;35493;50.276;9.372;2023-04-24T00:05:40;13.30;83.60
49413;DHT22;35493;50.276;9.372;2023-04-24T00:08:07;13.40;83.30
49413;DHT22;35493;50.276;9.372;2023-04-24T00:10:34;13.30;82.90
49413;DHT22;35493;50.276;9.372;2023-04-24T00:13:02;13.30;82.50
49413;DHT22;35493;50.276;9.372;2023-04-24T00:15:29;13.40;81.90
49413;DHT22;35493;50.276;9.372;2023-04-24T00:17:56;13.40;81.50
49413;DHT22;35493;50.276;9.372;2023-04-24T00:20:23;13.40;81.30
49413;DHT22;35493;50.276;9.372;2023-04-24T00:22:49;13.40;81.10
49413;DHT22;35493;50.276;9.372;2023-04-24T00:25:16;13.40;81.10
49413;DHT22;35493;50.276;9.372;2023-04-24T00:27:43;13.40;80.90
49413;DHT22;35493;50.276;9.372;2023-04-24T00:30:11;13.40;80.80
49413;DHT22;35493;50.276;9.372;2023-04-24T00:32:38;13.40;80.70
49413;DHT22;35493;50.276;9.372;2023-04-24T00:35:05;13.40;80.80
49413;DHT22;35493;50.276;9.372;2023-04-24T00:37:33;13.40;80.70
49413;DHT22;35493;50.276;9.372;2023-04-24T00:40:00;13.40;80.60
49413;DHT22;35493;50.276;9.372;2023-04-24T00:42:27;13.40;80.50
49413;DHT22;35493;50.276;9.372;2023-04-24T00:44:54;13.40;80.30
49413;DHT22;35493;50.276;9.372;2023-04-24T00:47:23;13.40;80.50
49413;DHT22;35493;50.276;9.372;2023-04-24T00:49:50;13.30;80.50
49413;DHT22;35493;50.276;9.372;2023-04-24T00:52:18;13.30;80.40
49413;DHT22;35493;50.276;9.372;2023-04-24T00:54:45;13.40;80.10
49413;DHT22;35493;50.276;9.372;2023-04-24T00:57:12;13.40;80.20
49413;DHT22;35493;50.276;9.372;2023-04-24T00:59:40;13.40;80.20
49413;DHT22;35493;50.276;9.372;2023-04-24T01:02:07;13.40;80.40
49413;DHT22;35493;50.276;9.372;2023-04-24T01:04:35;13.30;80.80
49413;DHT22;35493;50.276;9.372;2023-04-24T01:07:04;13.30;81.00
49413;DHT22;35493;50.276;9.372;2023-04-24T01:09:35;13.20;81.50
49413;DHT22;35493;50.276;9.372;2023-04-24T01:12:02;13.20;81.60
49413;DHT22;35493;50.276;9.372;2023-04-24T01:14:29;13.20;82.00
49413;DHT22;35493;50.276;9.372;2023-04-24T01:16:56;13.10;82.20
49413;DHT22;35493;50.276;9.372;2023-04-24T01:19:23;13.10;82.50
49413;DHT22;35493;50.276;9.372;2023-04-24T01:21:51;13.10;82.70
49413;DHT22;35493;50.276;9.372;2023-04-24T01:24:21;13.10;82.50
49413;DHT22;35493;50.276;9.372;2023-04-24T01:26:48;13.10;82.40
49413;DHT22;35493;50.276;9.372;2023-04-24T01:29:15;13.10;82.70
49413;DHT22;35493;50.276;9.372;2023-04-24T01:31:42;13.10;82.70
49413;DHT22;35493;50.276;9.372;2023-04-24T01:34:09;13.10;82.90
49413;DHT22;35493;50.276;9.372;2023-04-24T01:36:36;13.10;82.80
49413;DHT22;35493;50.276;9.372;2023-04-24T01:39:04;13.10;82.90
49413;DHT22;35493;50.276;9.372;2023-04-24T01:41:32;13.10;83.10
49413;DHT22;35493;50.276;9.372;2023-04-24T01:43:59;13.10;83.10
49413;DHT22;35493;50.276;9.372;2023-04-24T01:46:29;13.00;82.70
49413;DHT22;35493;50.276;9.372;2023-04-24T01:49:04;13.10;82.00
49413;DHT22;35493;50.276;9.372;2023-04-24T01:51:32;13.10;81.50
49413;DHT22;35493;50.276;9.372;2023-04-24T01:53:59;13.10;81.30
49413;DHT22;35493;50.276;9.372;2023-04-24T01:56:25;13.10;81.20
49413;DHT22;35493;50.276;9.372;2023-04-24T01:58:56;13.10;81.50
49413;DHT22;35493;50.276;9.372;2023-04-24T02:01:26;13.00;81.60
49413;DHT22;35493;50.276;9.372;2023-04-24T02:03:53;13.00;81.70
49413;DHT22;35493;50.276;9.372;2023-04-24T02:06:20;13.00;81.70
49413;DHT22;35493;50.276;9.372;2023-04-24T02:08:47;13.00;81.80
49413;DHT22;35493;50.276;9.372;2023-04-24T02:11:14;13.00;81.80
49413;DHT22;35493;50.276;9.372;2023-04-24T02:13:41;13.00;82.10
49413;DHT22;35493;50.276;9.372;2023-04-24T02:16:09;12.90;82.00
49413;DHT22;35493;50.276;9.372;2023-04-24T02:18:37;12.90;81.90
49413;DHT22;35493;50.276;9.372;2023-04-24T02:21:03;12.90;82.00
49413;DHT22;35493;50.276;9.372;2023-04-24T02:23:30;13.00;81.70
49413;DHT22;35493;50.276;9.372;2023-04-24T02:25:57;13.00;81.60
49413;DHT22;35493;50.276;9.372;2023-04-24T02:28:24;12.90;81.70
49413;DHT22;35493;50.276;9.372;2023-04-24T02:30:51;12.90;81.70
49413;DHT22;35493;50.276;9.372;2023-04-24T02:33:22;12.90;81.70
49413;DHT22;35493;50.276;9.372;2023-04-24T02:35:49;12.90;81.50
49413;DHT22;35493;50.276;9.372;2023-04-24T02:38:16;12.90;81.40
49413;DHT22;35493;50.276;9.372;2023-04-24T02:40:43;12.90;81.30
49413;DHT22;35493;50.276;9.372;2023-04-24T02:43:10;12.90;81.20
49413;DHT22;35493;50.276;9.372;2023-04-24T02:45:37;12.80;81.20
49413;DHT22;35493;50.276;9.372;2023-04-24T02:48:04;12.80;81.10
49413;DHT22;35493;50.276;9.372;2023-04-24T02:50:32;12.80;81.00
49413;DHT22;35493;50.276;9.372;2023-04-24T02:52:59;12.80;81.10
49413;DHT22;35493;50.276;9.372;2023-04-24T02:55:26;12.80;81.00
49413;DHT22;35493;50.276;9.372;2023-04-24T02:57:53;12.80;81.00
49413;DHT22;35493;50.276;9.372;2023-04-24T03:00:20;12.90;80.80
49413;DHT22;35493;50.276;9.372;2023-04-24T03:02:47;12.80;81.10
49413;DHT22;35493;50.276;9.372;2023-04-24T03:05:15;12.80;81.00
49413;DHT22;35493;50.276;9.372;2023-04-24T03:07:43;12.80;80.90
49413;DHT22;35493;50.276;9.372;2023-04-24T03:10:11;12.80;80.70
49413;DHT22;35493;50.276;9.372;2023-04-24T03:12:37;12.70;80.80
49413;DHT22;35493;50.276;9.372;2023-04-24T03:15:04;12.70;80.60
49413;DHT22;35493;50.276;9.372;2023-04-24T03:17:31;12.70;80.30
49413;DHT22;35493;50.276;9.372;2023-04-24T03:19:58;12.80;80.00
49413;DHT22;35493;50.276;9.372;2023-04-24T03:22:25;12.80;79.90
49413;DHT22;35493;50.276;9.372;2023-04-24T03:24:53;12.80;79.70
49413;DHT22;35493;50.276;9.372;2023-04-24T03:27:20;12.90;79.20
49413;DHT22;35493;50.276;9.372;2023-04-24T03:29:55;12.80;79.40
49413;DHT22;35493;50.276;9.372;2023-04-24T03:32:28;12.80;79.00
49413;DHT22;35493;50.276;9.372;2023-04-24T03:34:55;12.90;78.80
49413;DHT22;35493;50.276;9.372;2023-04-24T03:37:22;12.90;78.90
49413;DHT22;35493;50.276;9.372;2023-04-24T03:40:02;12.80;79.00
49413;DHT22;35493;50.276;9.372;2023-04-24T03:42:29;12.80;79.00
49413;DHT22;35493;50.276;9.372;2023-04-24T03:44:56;12.90;78.70
49413;DHT22;35493;50.276;9.372;2023-04-24T03:47:28;12.80;78.80
49413;DHT22;35493;50.276;9.372;2023-04-24T03:49:57;12.80;78.70
49413;DHT22;35493;50.276;9.372;2023-04-24T03:52:24;12.90;78.50
49413;DHT22;35493;50.276;9.372;2023-04-24T03:54:50;12.80;78.80
49413;DHT22;35493;50.276;9.372;2023-04-24T03:57:18;12.80;78.90
49413;DHT22;35493;50.276;9.372;2023-04-24T03:59:57;12.80;78.70
49413;DHT22;35493;50.276;9.372;2023-04-24T04:02:25;12.80;78.90
49413;DHT22;35493;50.276;9.372;2023-04-24T04:04:51;12.70;78.90
49413;DHT22;35493;50.276;9.372;2023-04-24T04:07:19;12.80;78.70
49413;DHT22;35493;50.276;9.372;2023-04-24T04:09:46;12.80;78.70
49413;DHT22;35493;50.276;9.372;2023-04-24T04:12:12;12.80;78.80
49413;DHT22;35493;50.276;9.372;2023-04-24T04:14:41;12.70;78.80
49413;DHT22;35493;50.276;9.372;2023-04-24T04:17:08;12.80;78.30
49413;DHT22;35493;50.276;9.372;2023-04-24T04:19:35;12.80;78.20
49413;DHT22;35493;50.276;9.372;2023-04-24T04:22:02;12.70;78.40
49413;DHT22;35493;50.276;9.372;2023-04-24T04:24:42;12.70;78.50
49413;DHT22;35493;50.276;9.372;2023-04-24T04:27:10;12.70;78.60
49413;DHT22;35493;50.276;9.372;2023-04-24T04:29:55;12.70;78.60
49413;DHT22;35493;50.276;9.372;2023-04-24T04:32:24;12.80;78.60
49413;DHT22;35493;50.276;9.372;2023-04-24T04:34:51;12.70;78.70
49413;DHT22;35493;50.276;9.372;2023-04-24T04:37:19;12.70;78.80
49413;DHT22;35493;50.276;9.372;2023-04-24T04:39:58;12.70;78.80
49413;DHT22;35493;50.276;9.372;2023-04-24T04:42:27;12.70;79.20
49413;DHT22;35493;50.276;9.372;2023-04-24T04:44:55;12.60;79.50
49413;DHT22;35493;50.276;9.372;2023-04-24T04:47:35;12.70;79.50
49413;DHT22;35493;50.276;9.372;2023-04-24T04:50:02;12.60;79.70
49413;DHT22;35493;50.276;9.372;2023-04-24T04:52:31;12.60;80.10
49413;DHT22;35493;50.276;9.372;2023-04-24T04:55:08;12.70;80.30
49413;DHT22;35493;50.276;9.372;2023-04-24T04:57:54;12.60;80.70
49413;DHT22;35493;50.276;9.372;2023-04-24T05:00:24;12.60;80.90
49413;DHT22;35493;50.276;9.372;2023-04-24T05:02:52;12.60;80.90
49413;DHT22;35493;50.276;9.372;2023-04-24T05:05:19;12.60;80.60
49413;DHT22;35493;50.276;9.372;2023-04-24T05:07:45;12.60;80.90
49413;DHT22;35493;50.276;9.372;2023-04-24T05:10:12;12.50;81.20
49413;DHT22;35493;50.276;9.372;2023-04-24T05:12:39;12.50;81.00
49413;DHT22;35493;50.276;9.372;2023-04-24T05:15:07;12.50;80.80
49413;DHT22;35493;50.276;9.372;2023-04-24T05:17:35;12.50;80.40
49413;DHT22;35493;50.276;9.372;2023-04-24T05:20:03;12.50;80.50
49413;DHT22;35493;50.276;9.372;2023-04-24T05:22:31;12.40;80.40
49413;DHT22;35493;50.276;9.372;2023-04-24T05:25:01;12.40;80.50
49413;DHT22;35493;50.276;9.372;2023-04-24T05:27:45;12.40;80.40
49413;DHT22;35493;50.276;9.372;2023-04-24T05:30:14;12.40;79.90
49413;DHT22;35493;50.276;9.372;2023-04-24T05:32:44;12.40;79.90
49413;DHT22;35493;50.276;9.372;2023-04-24T05:35:12;12.40;79.90
49413;DHT22;35493;50.276;9.372;2023-04-24T05:37:39;12.40;80.00
49413;DHT22;35493;50.276;9.372;2023-04-24T05:40:08;12.40;79.90
49413;DHT22;35493;50.276;9.372;2023-04-24T05:42:38;12.40;79.70
49413;DHT22;35493;50.276;9.372;2023-04-24T05:45:06;12.40;79.50
49413;DHT22;35493;50.276;9.372;2023-04-24T05:47:34;12.40;79.80
49413;DHT22;35493;50.276;9.372;2023-04-24T05:50:06;12.40;79.80
49413;DHT22;35493;50.276;9.372;2023-04-24T05:52:36;12.40;79.60
49413;DHT22;35493;50.276;9.372;2023-04-24T05:55:09;12.40;79.50
49413;DHT22;35493;50.276;9.372;2023-04-24T05:57:38;12.40;79.50
49413;DHT22;35493;50.276;9.372;2023-04-24T06:00:09;12.40;79.50
49413;DHT22;35493;50.276;9.372;2023-04-24T06:03:01;12.40;79.50
49413;DHT22;35493;50.276;9.372;2023-04-24T06:05:31;12.40;79.10
49413;DHT22;35493;50.276;9.372;2023-04-24T06:08:13;12.40;78.90
49413;DHT22;35493;50.276;9.372;2023-04-24T06:10:47;12.40;78.80
49413;DHT22;35493;50.276;9.372;2023-04-24T06:13:15;12.40;78.70
49413;DHT22;35493;50.276;9.372;2023-04-24T06:15:52;12.50;78.50
49413;DHT22;35493;50.276;9.372;2023-04-24T06:18:28;12.60;78.30
49413;DHT22;35493;50.276;9.372;2023-04-24T06:20:58;12.60;78.00
49413;DHT22;35493;50.276;9.372;2023-04-24T06:23:25;12.70;77.90
49413;DHT22;35493;50.276;9.372;2023-04-24T06:25:53;12.70;77.70
49413;DHT22;35493;50.276;9.372;2023-04-24T06:28:20;12.60;77.60
49413;DHT22;35493;50.276;9.372;2023-04-24T06:30:49;12.60;77.60
49413;DHT22;35493;50.276;9.372;2023-04-24T06:33:16;12.60;77.20
49413;DHT22;35493;50.276;9.372;2023-04-24T06:35:43;12.70;76.50
49413;DHT22;35493;50.276;9.372;2023-04-24T06:38:11;12.70;75.40
49413;DHT22;35493;50.276;9.372;2023-04-24T06:40:37;12.70;75.00
49413;DHT22;35493;50.276;9.372;2023-04-24T06:43:04;12.90;73.90
49413;DHT22;35493;50.276;9.372;2023-04-24T06:45:31;13.00;73.10
49413;DHT22;35493;50.276;9.372;2023-04-24T06:47:58;13.00;71.70
49413;DHT22;35493;50.276;9.372;2023-04-24T06:50:25;13.10;71.40
49413;DHT22;35493;50.276;9.372;2023-04-24T06:52:52;13.20;70.00
49413;DHT22;35493;50.276;9.372;2023-04-24T06:55:20;13.20;68.30
49413;DHT22;35493;50.276;9.372;2023-04-24T06:57:47;13.30;68.20
49413;DHT22;35493;50.276;9.372;2023-04-24T07:00:17;13.40;66.70
49413;DHT22;35493;50.276;9.372;2023-04-24T07:02:44;13.40;65.40
49413;DHT22;35493;50.276;9.372;2023-04-24T07:05:10;13.60;65.60
49413;DHT22;35493;50.276;9.372;2023-04-24T07:07:38;13.70;65.00
49413;DHT22;35493;50.276;9.372;2023-04-24T07:10:05;13.70;65.60
49413;DHT22;35493;50.276;9.372;2023-04-24T07:12:35;13.70;65.70
49413;DHT22;35493;50.276;9.372;2023-04-24T07:15:03;13.60;65.80
49413;DHT22;35493;50.276;9.372;2023-04-24T07:17:30;13.60;66.10
49413;DHT22;35493;50.276;9.372;2023-04-24T07:19:57;13.80;65.80
49413;DHT22;35493;50.276;9.372;2023-04-24T07:22:24;13.70;66.00
49413;DHT22;35493;50.276;9.372;2023-04-24T07:24:51;13.60;65.90
49413;DHT22;35493;50.276;9.372;2023-04-24T07:27:17;13.60;65.80
49413;DHT22;35493;50.276;9.372;2023-04-24T07:29:46;13.40;65.60
49413;DHT22;35493;50.276;9.372;2023-04-24T07:32:12;13.30;64.60
49413;DHT22;35493;50.276;9.372;2023-04-24T07:34:39;13.30;64.60
49413;DHT22;35493;50.276;9.372;2023-04-24T07:37:06;13.20;65.00
49413;DHT22;35493;50.276;9.372;2023-04-24T07:39:32;13.20;64.90
49413;DHT22;35493;50.276;9.372;2023-04-24T07:41:59;13.30;64.70
49413;DHT22;35493;50.276;9.372;2023-04-24T07:44:27;13.50;64.40
49413;DHT22;35493;50.276;9.372;2023-04-24T07:46:55;13.60;64.20
49413;DHT22;35493;50.276;9.372;2023-04-24T07:49:22;13.70;64.00
49413;DHT22;35493;50.276;9.372;2023-04-24T07:51:49;13.70;63.40
49413;DHT22;35493;50.276;9.372;2023-04-24T07:54:17;13.80;63.20
49413;DHT22;35493;50.276;9.372;2023-04-24T07:56:43;13.90;63.20
49413;DHT22;35493;50.276;9.372;2023-04-24T07:59:10;14.00;63.00
49413;DHT22;35493;50.276;9.372;2023-04-24T08:01:37;14.10;62.90
49413;DHT22;35493;50.276;9.372;2023-04-24T08:04:05;14.10;63.10
49413;DHT22;35493;50.276;9.372;2023-04-24T08:06:32;14.20;62.50
49413;DHT22;35493;50.276;9.372;2023-04-24T08:08:59;14.20;62.00
49413;DHT22;35493;50.276;9.372;2023-04-24T08:11:26;14.30;61.60
49413;DHT22;35493;50.276;9.372;2023-04-24T08:13:53;14.40;61.60
49413;DHT22;35493;50.276;9.372;2023-04-24T08:16:20;14.50;61.30
49413;DHT22;35493;50.276;9.372;2023-04-24T08:18:50;14.50;61.10
49413;DHT22;35493;50.276;9.372;2023-04-24T08:21:18;14.70;61.50
49413;DHT22;35493;50.276;9.372;2023-04-24T08:23:46;14.90;61.50
49413;DHT22;35493;50.276;9.372;2023-04-24T08:26:13;15.00;60.80
49413;DHT22;35493;50.276;9.372;2023-04-24T08:28:39;15.10;59.90
49413;DHT22;35493;50.276;9.372;2023-04-24T08:31:06;15.20;59.70
49413;DHT22;35493;50.276;9.372;2023-04-24T08:33:33;15.20;59.70
49413;DHT22;35493;50.276;9.372;2023-04-24T08:36:01;15.30;59.10
49413;DHT22;35493;50.276;9.372;2023-04-24T08:38:29;15.30;59.40
49413;DHT22;35493;50.276;9.372;2023-04-24T08:40:57;15.40;59.10
49413;DHT22;35493;50.276;9.372;2023-04-24T08:43:25;15.50;58.80
49413;DHT22;35493;50.276;9.372;2023-04-24T08:45:52;15.60;58.50
49413;DHT22;35493;50.276;9.372;2023-04-24T08:48:19;15.80;58.10
49413;DHT22;35493;50.276;9.372;2023-04-24T08:50:46;15.90;57.90
49413;DHT22;35493;50.276;9.372;2023-04-24T08:53:14;15.80;57.40
49413;DHT22;35493;50.276;9.372;2023-04-24T08:55:43;15.80;57.20
49413;DHT22;35493;50.276;9.372;2023-04-24T08:58:11;15.70;57.00
49413;DHT22;35493;50.276;9.372;2023-04-24T09:00:38;15.50;57.00
49413;DHT22;35493;50.276;9.372;2023-04-24T09:03:05;15.30;57.00
49413;DHT22;35493;50.276;9.372;2023-04-24T09:05:32;15.20;57.70
49413;DHT22;35493;50.276;9.372;2023-04-24T09:07:59;15.10;57.60
49413;DHT22;35493;50.276;9.372;2023-04-24T09:10:26;15.30;57.30
49413;DHT22;35493;50.276;9.372;2023-04-24T09:12:57;15.20;56.90
49413;DHT22;35493;50.276;9.372;2023-04-24T09:15:26;15.10;57.00
49413;DHT22;35493;50.276;9.372;2023-04-24T09:17:53;15.10;57.50
49413;DHT22;35493;50.276;9.372;2023-04-24T09:20:20;15.10;57.50
49413;DHT22;35493;50.276;9.372;2023-04-24T09:22:47;15.30;57.40
49413;DHT22;35493;50.276;9.372;2023-04-24T09:25:13;15.40;57.50
49413;DHT22;35493;50.276;9.372;2023-04-24T09:27:41;15.30;57.70
49413;DHT22;35493;50.276;9.372;2023-04-24T09:30:11;15.20;57.30
49413;DHT22;35493;50.276;9.372;2023-04-24T09:32:37;15.10;57.70
49413;DHT22;35493;50.276;9.372;2023-04-24T09:35:05;15.00;57.50
49413;DHT22;35493;50.276;9.372;2023-04-24T09:37:34;14.80;57.70
49413;DHT22;35493;50.276;9.372;2023-04-24T09:40:11;14.60;57.70
49413;DHT22;35493;50.276;9.372;2023-04-24T09:42:38;14.60;58.30
49413;DHT22;35493;50.276;9.372;2023-04-24T09:45:08;14.50;57.90
49413;DHT22;35493;50.276;9.372;2023-04-24T09:47:37;14.40;58.00
49413;DHT22;35493;50.276;9.372;2023-04-24T09:50:11;14.30;58.10
49413;DHT22;35493;50.276;9.372;2023-04-24T09:52:41;14.20;58.20
49413;DHT22;35493;50.276;9.372;2023-04-24T09:55:13;14.20;58.30
49413;DHT22;35493;50.276;9.372;2023-04-24T09:57:48;14.20;58.60
49413;DHT22;35493;50.276;9.372;2023-04-24T10:00:17;14.20;59.00
49413;DHT22;35493;50.276;9.372;2023-04-24T10:02:46;14.10;59.30
49413;DHT22;35493;50.276;9.372;2023-04-24T10:05:15;14.10;59.30
49413;DHT22;35493;50.276;9.372;2023-04-24T10:07:46;14.10;59.30
49413;DHT22;35493;50.276;9.372;2023-04-24T10:10:12;14.00;59.50
49413;DHT22;35493;50.276;9.372;2023-04-24T10:12:39;14.10;59.50
49413;DHT22;35493;50.276;9.372;2023-04-24T10:15:07;14.10;59.30
49413;DHT22;35493;50.276;9.372;2023-04-24T10:17:34;14.10;59.10
49413;DHT22;35493;50.276;9.372;2023-04-24T10:20:04;14.00;59.90
49413;DHT22;35493;50.276;9.372;2023-04-24T10:22:32;14.00;59.90
49413;DHT22;35493;50.276;9.372;2023-04-24T10:25:03;14.10;60.20
49413;DHT22;35493;50.276;9.372;2023-04-24T10:27:37;14.10;59.90
49413;DHT22;35493;50.276;9.372;2023-04-24T10:30:04;14.10;59.50
49413;DHT22;35493;50.276;9.372;2023-04-24T10:32:32;14.10;59.70
49413;DHT22;35493;50.276;9.372;2023-04-24T10:34:59;14.10;59.90
49413;DHT22;35493;50.276;9.372;2023-04-24T10:37:30;14.00;60.20
49413;DHT22;35493;50.276;9.372;2023-04-24T10:40:02;14.00;60.20
49413;DHT22;35493;50.276;9.372;2023-04-24T10:42:29;14.00;60.30
49413;DHT22;35493;50.276;9.372;2023-04-24T10:44:55;13.90;60.60
49413;DHT22;35493;50.276;9.372;2023-04-24T10:47:23;13.90;60.90
49413;DHT22;35493;50.276;9.372;2023-04-24T10:49:50;14.00;60.00
49413;DHT22;35493;50.276;9.372;2023-04-24T10:52:17;14.10;60.00
49413;DHT22;35493;50.276;9.372;2023-04-24T10:54:46;14.30;59.90
49413;DHT22;35493;50.276;9.372;2023-04-24T10:57:25;14.40;59.90
49413;DHT22;35493;50.276;9.372;2023-04-24T11:02:37;14.40;60.00
49413;DHT22;35493;50.276;9.372;2023-04-24T11:05:06;14.40;59.70
49413;DHT22;35493;50.276;9.372;2023-04-24T11:07:42;14.40;59.80
49413;DHT22;35493;50.276;9.372;2023-04-24T11:10:30;14.50;60.20
49413;DHT22;35493;50.276;9.372;2023-04-24T11:12:57;14.60;60.30
49413;DHT22;35493;50.276;9.372;2023-04-24T11:15:24;14.50;60.60
49413;DHT22;35493;50.276;9.372;2023-04-24T11:17:51;14.50;61.10
49413;DHT22;35493;50.276;9.372;2023-04-24T11:20:22;14.40;62.50
49413;DHT22;35493;50.276;9.372;2023-04-24T11:22:52;14.10;63.60
49413;DHT22;35493;50.276;9.372;2023-04-24T11:25:20;14.10;63.90
49413;DHT22;35493;50.276;9.372;2023-04-24T11:27:49;14.10;64.30
49413;DHT22;35493;50.276;9.372;2023-04-24T11:30:17;13.90;65.10
49413;DHT22;35493;50.276;9.372;2023-04-24T11:32:47;13.80;66.30
49413;DHT22;35493;50.276;9.372;2023-04-24T11:35:15;13.70;67.00
49413;DHT22;35493;50.276;9.372;2023-04-24T11:37:42;13.80;67.30
49413;DHT22;35493;50.276;9.372;2023-04-24T11:40:11;13.70;68.10
49413;DHT22;35493;50.276;9.372;2023-04-24T11:42:39;13.60;68.70
49413;DHT22;35493;50.276;9.372;2023-04-24T11:45:09;13.50;69.60
49413;DHT22;35493;50.276;9.372;2023-04-24T11:47:36;13.60;69.90
49413;DHT22;35493;50.276;9.372;2023-04-24T11:50:03;13.70;70.50
49413;DHT22;35493;50.276;9.372;2023-04-24T11:52:31;13.70;70.50
49413;DHT22;35493;50.276;9.372;2023-04-24T11:54:58;13.90;71.00
49413;DHT22;35493;50.276;9.372;2023-04-24T11:57:25;14.00;70.50
49413;DHT22;35493;50.276;9.372;2023-04-24T11:59:54;14.10;70.40
49413;DHT22;35493;50.276;9.372;2023-04-24T12:02:23;14.20;70.50
49413;DHT22;35493;50.276;9.372;2023-04-24T12:04:50;14.20;70.10
49413;DHT22;35493;50.276;9.372;2023-04-24T12:07:16;14.20;69.50
49413;DHT22;35493;50.276;9.372;2023-04-24T12:09:43;14.30;69.60
49413;DHT22;35493;50.276;9.372;2023-04-24T12:12:11;14.30;69.90
49413;DHT22;35493;50.276;9.372;2023-04-24T12:14:42;14.30;69.80
49413;DHT22;35493;50.276;9.372;2023-04-24T12:17:09;14.30;70.00
49413;DHT22;35493;50.276;9.372;2023-04-24T12:19:37;14.20;70.00
49413;DHT22;35493;50.276;9.372;2023-04-24T12:22:04;14.10;70.00
49413;DHT22;35493;50.276;9.372;2023-04-24T12:24:31;14.10;69.50
49413;DHT22;35493;50.276;9.372;2023-04-24T12:26:58;13.90;69.40
49413;DHT22;35493;50.276;9.372;2023-04-24T12:29:26;13.90;69.40
49413;DHT22;35493;50.276;9.372;2023-04-24T12:31:53;13.90;68.70
49413;DHT22;35493;50.276;9.372;2023-04-24T12:34:21;13.90;69.10
49413;DHT22;35493;50.276;9.372;2023-04-24T12:36:50;13.90;69.40
49413;DHT22;35493;50.276;9.372;2023-04-24T12:39:17;13.90;69.50
49413;DHT22;35493;50.276;9.372;2023-04-24T12:41:54;14.10;70.40
49413;DHT22;35493;50.276;9.372;2023-04-24T12:44:28;14.00;70.50
49413;DHT22;35493;50.276;9.372;2023-04-24T12:46:55;14.00;71.20
49413;DHT22;35493;50.276;9.372;2023-04-24T12:49:22;13.90;69.70
49413;DHT22;35493;50.276;9.372;2023-04-24T12:51:50;13.90;69.00
49413;DHT22;35493;50.276;9.372;2023-04-24T12:54:17;13.80;69.90
49413;DHT22;35493;50.276;9.372;2023-04-24T12:56:43;13.70;71.50
49413;DHT22;35493;50.276;9.372;2023-04-24T12:59:10;13.70;71.80
49413;DHT22;35493;50.276;9.372;2023-04-24T13:01:37;13.70;72.00
49413;DHT22;35493;50.276;9.372;2023-04-24T13:04:04;13.80;71.70
49413;DHT22;35493;50.276;9.372;2023-04-24T13:06:31;13.90;71.70
49413;DHT22;35493;50.276;9.372;2023-04-24T13:08:59;13.90;71.50
49413;DHT22;35493;50.276;9.372;2023-04-24T13:11:26;13.80;71.70
49413;DHT22;35493;50.276;9.372;2023-04-24T13:13:54;13.80;72.40
49413;DHT22;35493;50.276;9.372;2023-04-24T13:16:20;13.80;71.30
49413;DHT22;35493;50.276;9.372;2023-04-24T13:18:48;13.90;69.80
49413;DHT22;35493;50.276;9.372;2023-04-24T13:21:15;13.70;69.60
49413;DHT22;35493;50.276;9.372;2023-04-24T13:23:42;13.60;69.00
49413;DHT22;35493;50.276;9.372;2023-04-24T13:26:10;13.60;69.10
49413;DHT22;35493;50.276;9.372;2023-04-24T13:28:37;13.50;69.50
49413;DHT22;35493;50.276;9.372;2023-04-24T13:31:04;13.30;69.90
49413;DHT22;35493;50.276;9.372;2023-04-24T13:33:31;13.30;70.00
49413;DHT22;35493;50.276;9.372;2023-04-24T13:35:58;13.30;70.20
49413;DHT22;35493;50.276;9.372;2023-04-24T13:38:25;13.30;70.60
49413;DHT22;35493;50.276;9.372;2023-04-24T13:40:52;13.20;72.10
49413;DHT22;35493;50.276;9.372;2023-04-24T13:43:20;13.20;72.90
49413;DHT22;35493;50.276;9.372;2023-04-24T13:45:49;13.00;72.60
49413;DHT22;35493;50.276;9.372;2023-04-24T13:48:16;12.90;73.20
49413;DHT22;35493;50.276;9.372;2023-04-24T13:50:43;12.90;73.00
49413;DHT22;35493;50.276;9.372;2023-04-24T13:53:10;12.80;73.30
49413;DHT22;35493;50.276;9.372;2023-04-24T13:55:37;12.80;73.10
49413;DHT22;35493;50.276;9.372;2023-04-24T13:58:04;12.80;73.10
49413;DHT22;35493;50.276;9.372;2023-04-24T14:00:33;12.80;72.90
49413;DHT22;35493;50.276;9.372;2023-04-24T14:03:00;12.70;73.30
49413;DHT22;35493;50.276;9.372;2023-04-24T14:05:26;12.70;73.10
49413;DHT22;35493;50.276;9.372;2023-04-24T14:07:53;12.70;73.40
49413;DHT22;35493;50.276;9.372;2023-04-24T14:10:20;12.70;73.40
49413;DHT22;35493;50.276;9.372;2023-04-24T14:12:47;12.60;74.10
49413;DHT22;35493;50.276;9.372;2023-04-24T14:15:17;12.60;74.50
49413;DHT22;35493;50.276;9.372;2023-04-24T14:17:48;12.60;74.90
49413;DHT22;35493;50.276;9.372;2023-04-24T14:20:15;12.50;75.50
49413;DHT22;35493;50.276;9.372;2023-04-24T14:22:42;12.60;75.60
49413;DHT22;35493;50.276;9.372;2023-04-24T14:25:09;12.70;75.30
49413;DHT22;35493;50.276;9.372;2023-04-24T14:27:36;12.90;75.00
49413;DHT22;35493;50.276;9.372;2023-04-24T14:30:03;12.90;75.00
49413;DHT22;35493;50.276;9.372;2023-04-24T14:32:30;13.10;75.10
49413;DHT22;35493;50.276;9.372;2023-04-24T14:34:58;13.20;74.60
49413;DHT22;35493;50.276;9.372;2023-04-24T14:37:24;13.20;74.90
49413;DHT22;35493;50.276;9.372;2023-04-24T14:39:51;13.20;75.00
49413;DHT22;35493;50.276;9.372;2023-04-24T14:42:18;13.20;74.70
49413;DHT22;35493;50.276;9.372;2023-04-24T14:44:45;13.20;74.50
49413;DHT22;35493;50.276;9.372;2023-04-24T14:47:12;13.10;75.10
49413;DHT22;35493;50.276;9.372;2023-04-24T14:49:39;13.00;75.30
49413;DHT22;35493;50.276;9.372;2023-04-24T14:52:07;12.90;75.90
49413;DHT22;35493;50.276;9.372;2023-04-24T14:54:33;12.90;76.30
49413;DHT22;35493;50.276;9.372;2023-04-24T14:57:00;12.90;76.20
49413;DHT22;35493;50.276;9.372;2023-04-24T14:59:27;12.90;76.30
49413;DHT22;35493;50.276;9.372;2023-04-24T15:01:56;12.90;76.60
49413;DHT22;35493;50.276;9.372;2023-04-24T15:04:23;12.90;76.90
49413;DHT22;35493;50.276;9.372;2023-04-24T15:06:50;12.90;77.40
49413;DHT22;35493;50.276;9.372;2023-04-24T15:09:20;13.00;77.40
49413;DHT22;35493;50.276;9.372;2023-04-24T15:11:47;13.10;77.40
49413;DHT22;35493;50.276;9.372;2023-04-24T15:14:14;13.20;77.10
49413;DHT22;35493;50.276;9.372;2023-04-24T15:16:40;13.30;76.70
49413;DHT22;35493;50.276;9.372;2023-04-24T15:19:07;13.40;76.80
49413;DHT22;35493;50.276;9.372;2023-04-24T15:21:35;13.40;76.80
49413;DHT22;35493;50.276;9.372;2023-04-24T15:24:02;13.40;76.50
49413;DHT22;35493;50.276;9.372;2023-04-24T15:26:30;13.50;75.70
49413;DHT22;35493;50.276;9.372;2023-04-24T15:28:57;13.50;74.90
49413;DHT22;35493;50.276;9.372;2023-04-24T15:31:23;13.60;74.40
49413;DHT22;35493;50.276;9.372;2023-04-24T15:33:50;13.60;74.30
49413;DHT22;35493;50.276;9.372;2023-04-24T15:36:17;13.60;74.00
49413;DHT22;35493;50.276;9.372;2023-04-24T15:38:44;13.60;74.10